Time;durP1;ratioP1;P1;durP2;ratioP2;P2;SDS_P1;SDS_P2;PMS_P1;PMS_P2;Temp;Humidity;BMP_temperature;BMP_pressure;BME280_temperature;BME280_humidity;BME280_pressure;Samples;Min_cycle;Max_cycle;Signal;HPM_P1;HPM_P2
2023/08/08 00:00:35;;;;;;;3.70;1.60;;;15.00;97.60;;;;;;5032163;28;20041;-83
2023/08/08 00:03:01;;;;;;;4.70;1.50;;;15.00;97.50;;;;;;5031322;28;20511;-83
2023/08/08 00:05:27;;;;;;;5.07;1.80;;;15.00;97.40;;;;;;5032410;28;20136;-84
2023/08/08 00:07:52;;;;;;;4.07;1.40;;;15.00;97.60;;;;;;5032651;28;20124;-84
2023/08/08 00:10:18;;;;;;;5.50;1.58;;;15.00;97.60;;;;;;5048434;28;20041;-83
2023/08/08 00:12:44;;;;;;;5.68;1.80;;;15.00;97.70;;;;;;5032329;28;20045;-84
2023/08/08 00:15:09;;;;;;;4.38;1.50;;;15.00;97.80;;;;;;5030953;28;20045;-84
2023/08/08 00:17:35;;;;;;;5.57;1.60;;;15.00;97.60;;;;;;5032080;28;20045;-84
2023/08/08 00:20:02;;;;;;;4.68;1.50;;;15.00;97.70;;;;;;5034233;28;20042;-84
2023/08/08 00:22:27;;;;;;;5.45;1.48;;;15.00;97.60;;;;;;5035692;28;20495;-84
2023/08/08 00:24:53;;;;;;;4.00;1.98;;;15.00;97.70;;;;;;5041802;28;20057;-84
2023/08/08 00:27:18;;;;;;;4.60;1.50;;;15.00;97.60;;;;;;5018663;28;20049;-84
2023/08/08 00:29:45;;;;;;;5.32;1.83;;;15.00;97.60;;;;;;5036765;28;20094;-84
2023/08/08 00:32:11;;;;;;;5.35;1.73;;;15.00;97.70;;;;;;5035742;28;20406;-83
2023/08/08 00:34:36;;;;;;;6.35;1.65;;;14.90;97.80;;;;;;5034858;28;20052;-84
2023/08/08 00:37:02;;;;;;;4.45;1.55;;;15.00;97.70;;;;;;5051071;28;20556;-84
2023/08/08 00:39:28;;;;;;;4.70;1.70;;;15.00;97.70;;;;;;5035968;28;20060;-83
2023/08/08 00:41:53;;;;;;;6.07;2.03;;;15.00;97.90;;;;;;5036005;28;20042;-84
2023/08/08 00:44:19;;;;;;;4.53;1.70;;;15.00;97.80;;;;;;5036052;28;20038;-84
2023/08/08 00:46:47;;;;;;;6.32;1.80;;;15.00;97.70;;;;;;5035258;28;20049;-84
2023/08/08 00:49:16;;;;;;;5.72;1.98;;;15.00;97.80;;;;;;5036510;28;20050;-84
2023/08/08 00:51:42;;;;;;;3.80;1.83;;;15.00;98.00;;;;;;5035985;28;20045;-82
2023/08/08 00:54:10;;;;;;;3.92;1.52;;;15.00;98.10;;;;;;5034219;28;20064;-84
2023/08/08 00:56:36;;;;;;;3.10;1.50;;;15.00;97.80;;;;;;5035648;28;20054;-84
2023/08/08 00:59:03;;;;;;;5.72;2.00;;;15.00;97.70;;;;;;5035778;28;20063;-84
2023/08/08 01:01:32;;;;;;;5.15;1.70;;;15.00;97.90;;;;;;5035494;28;20063;-84
2023/08/08 01:04:00;;;;;;;4.78;1.55;;;15.00;97.60;;;;;;5035610;28;20046;-84
2023/08/08 01:06:51;;;;;;;4.43;1.42;;;14.90;97.40;;;;;;5035590;28;20497;-84
2023/08/08 01:09:35;;;;;;;4.30;1.58;;;14.90;97.40;;;;;;5035437;28;20045;-84
2023/08/08 01:12:08;;;;;;;6.05;2.00;;;14.90;97.20;;;;;;5035524;28;20526;-84
2023/08/08 01:14:35;;;;;;;6.57;1.93;;;14.90;97.80;;;;;;5034052;28;20041;-84
2023/08/08 01:17:01;;;;;;;3.40;1.52;;;14.90;97.70;;;;;;5034589;28;20123;-84
2023/08/08 01:19:29;;;;;;;5.50;1.95;;;14.90;97.60;;;;;;5040784;28;20056;-84
2023/08/08 01:22:00;;;;;;;4.03;1.55;;;14.80;97.60;;;;;;5055482;28;20053;-84
2023/08/08 01:24:29;;;;;;;3.83;1.70;;;14.80;97.60;;;;;;5055682;28;20497;-84
2023/08/08 01:26:55;;;;;;;4.20;1.55;;;14.80;97.40;;;;;;5043200;28;20084;-83
2023/08/08 01:29:21;;;;;;;3.42;1.40;;;14.80;97.30;;;;;;5033435;28;20041;-83
2023/08/08 01:31:47;;;;;;;5.53;1.52;;;14.80;97.30;;;;;;5039202;28;20052;-82
2023/08/08 01:34:13;;;;;;;5.18;1.52;;;14.80;97.30;;;;;;5035849;28;20041;-82
2023/08/08 01:36:57;;;;;;;4.07;1.73;;;14.80;97.20;;;;;;5033527;28;20046;-80
2023/08/08 01:39:26;;;;;;;3.75;1.70;;;14.80;97.30;;;;;;5035034;28;20093;-81
2023/08/08 01:41:53;;;;;;;4.07;1.60;;;14.80;97.20;;;;;;5040520;28;20087;-81
2023/08/08 01:44:20;;;;;;;3.95;1.70;;;14.70;97.20;;;;;;5037876;28;20116;-80
2023/08/08 01:46:47;;;;;;;4.25;1.50;;;14.70;97.10;;;;;;5034503;28;20552;-81
2023/08/08 01:49:13;;;;;;;5.25;2.08;;;14.70;97.20;;;;;;5036541;28;20077;-81
2023/08/08 01:51:38;;;;;;;8.05;2.00;;;14.70;97.40;;;;;;5035296;28;20077;-80
2023/08/08 01:54:04;;;;;;;4.15;1.80;;;14.70;97.60;;;;;;5035216;28;20075;-81
2023/08/08 01:56:30;;;;;;;4.15;1.70;;;14.70;97.70;;;;;;5034958;28;20061;-81
2023/08/08 01:58:56;;;;;;;5.97;1.70;;;14.70;97.90;;;;;;5036165;28;20050;-80
2023/08/08 02:01:21;;;;;;;4.00;1.60;;;14.70;97.60;;;;;;5035160;28;20099;-81
2023/08/08 02:03:47;;;;;;;4.03;1.77;;;14.70;97.70;;;;;;5034746;28;20045;-81
2023/08/08 02:06:13;;;;;;;5.28;1.95;;;14.70;97.60;;;;;;5033928;28;20076;-80
2023/08/08 02:08:38;;;;;;;5.82;1.70;;;14.60;97.60;;;;;;5035038;28;20045;-80
2023/08/08 02:11:05;;;;;;;4.20;1.70;;;14.60;97.70;;;;;;5037130;28;20057;-80
2023/08/08 02:13:31;;;;;;;4.90;1.80;;;14.60;97.70;;;;;;5038184;28;20052;-81
2023/08/08 02:15:56;;;;;;;5.03;1.65;;;14.60;98.10;;;;;;5034223;28;20045;-81
2023/08/08 02:18:22;;;;;;;5.78;1.80;;;14.60;98.00;;;;;;5034858;28;20037;-81
2023/08/08 02:20:48;;;;;;;3.88;1.80;;;14.60;97.70;;;;;;5034537;28;20080;-81
2023/08/08 02:23:13;;;;;;;5.60;2.30;;;14.60;97.80;;;;;;5035807;28;20036;-81
2023/08/08 02:25:39;;;;;;;3.05;1.58;;;14.60;97.90;;;;;;5036553;28;20104;-81
2023/08/08 02:28:05;;;;;;;4.15;1.75;;;14.60;97.80;;;;;;5034196;28;20045;-81
2023/08/08 02:30:31;;;;;;;4.45;1.60;;;14.60;97.80;;;;;;5049569;28;20073;-80
2023/08/08 02:32:56;;;;;;;2.47;1.23;;;14.60;98.10;;;;;;5034686;28;20049;-81
2023/08/08 02:35:26;;;;;;;3.63;1.50;;;14.60;98.10;;;;;;5034269;28;20042;-81
2023/08/08 02:37:51;;;;;;;3.75;1.60;;;14.50;98.00;;;;;;5032721;28;20056;-81
2023/08/08 02:40:17;;;;;;;6.22;2.17;;;14.60;97.90;;;;;;5048807;28;20067;-81
2023/08/08 02:42:43;;;;;;;4.28;1.73;;;14.60;98.10;;;;;;5033461;28;20073;-79
2023/08/08 02:45:09;;;;;;;7.60;2.20;;;14.50;98.10;;;;;;5034106;28;20091;-79
2023/08/08 02:47:34;;;;;;;7.38;2.17;;;14.60;98.30;;;;;;5032532;28;20091;-80
2023/08/08 02:50:00;;;;;;;4.00;1.73;;;14.50;98.30;;;;;;5033708;28;20087;-80
2023/08/08 02:52:25;;;;;;;4.75;1.92;;;14.50;98.60;;;;;;5033364;28;20094;-81
2023/08/08 02:54:51;;;;;;;4.53;1.80;;;14.50;98.10;;;;;;5032270;28;20052;-81
2023/08/08 02:57:17;;;;;;;4.65;1.60;;;14.50;98.10;;;;;;5033425;28;20056;-80
2023/08/08 02:59:42;;;;;;;5.47;2.10;;;14.50;97.90;;;;;;5033137;28;20041;-80
2023/08/08 03:02:08;;;;;;;3.30;1.67;;;14.50;97.90;;;;;;5033003;28;20407;-80
2023/08/08 03:04:34;;;;;;;3.83;1.77;;;14.50;97.70;;;;;;5032494;28;20064;-80
2023/08/08 03:07:02;;;;;;;4.63;1.80;;;14.50;97.60;;;;;;5032317;28;20049;-81
2023/08/08 03:09:28;;;;;;;5.93;1.70;;;14.50;97.70;;;;;;5033331;28;20072;-80
2023/08/08 03:11:53;;;;;;;5.20;2.13;;;14.50;97.60;;;;;;5036472;28;20123;-81
2023/08/08 03:14:19;;;;;;;4.72;1.80;;;14.50;98.00;;;;;;5033142;28;20073;-81
2023/08/08 03:16:45;;;;;;;2.85;1.58;;;14.40;97.60;;;;;;5032949;28;20053;-81
2023/08/08 03:19:10;;;;;;;6.60;1.65;;;14.40;97.50;;;;;;5033120;28;20128;-81
2023/08/08 03:21:36;;;;;;;5.20;1.67;;;14.40;97.40;;;;;;5032998;28;20041;-80
2023/08/08 03:24:01;;;;;;;4.68;1.90;;;14.40;97.30;;;;;;5033319;28;20041;-81
2023/08/08 03:26:27;;;;;;;4.80;1.70;;;14.40;97.20;;;;;;5032884;28;20124;-80
2023/08/08 03:28:53;;;;;;;4.60;1.70;;;14.40;97.20;;;;;;5031836;28;20056;-80
2023/08/08 03:31:20;;;;;;;6.13;2.13;;;14.40;97.40;;;;;;5031757;28;20037;-80
2023/08/08 03:33:45;;;;;;;8.30;2.15;;;14.30;97.50;;;;;;5033106;28;20121;-80
2023/08/08 03:36:11;;;;;;;4.65;1.85;;;14.40;97.50;;;;;;5033420;28;20164;-81
2023/08/08 03:38:37;;;;;;;6.00;2.05;;;14.40;97.30;;;;;;5031633;28;20415;-80
2023/08/08 03:41:04;;;;;;;8.85;2.60;;;14.30;97.40;;;;;;5048843;28;20049;-80
2023/08/08 03:43:29;;;;;;;3.90;1.65;;;14.30;98.00;;;;;;5035481;28;20041;-81
2023/08/08 03:45:55;;;;;;;4.97;1.90;;;14.30;98.30;;;;;;5032917;28;20103;-81
2023/08/08 03:48:21;;;;;;;5.45;1.67;;;14.30;98.00;;;;;;5032961;28;20072;-81
2023/08/08 03:50:46;;;;;;;6.50;2.10;;;14.30;98.10;;;;;;5033120;28;20075;-81
2023/08/08 03:53:12;;;;;;;5.60;1.67;;;14.30;98.00;;;;;;5031625;28;20052;-81
2023/08/08 03:55:38;;;;;;;5.20;2.00;;;14.30;97.90;;;;;;5032814;28;20041;-80
2023/08/08 03:58:05;;;;;;;3.92;1.77;;;14.30;97.90;;;;;;5031353;28;20060;-80
2023/08/08 04:00:31;;;;;;;7.00;1.88;;;14.30;97.90;;;;;;5032828;28;20037;-81
2023/08/08 04:02:57;;;;;;;6.10;2.22;;;14.30;98.00;;;;;;5032690;28;20373;-81
2023/08/08 04:05:22;;;;;;;6.05;1.67;;;14.20;98.00;;;;;;5032794;28;20037;-81
2023/08/08 04:07:48;;;;;;;6.68;1.85;;;14.20;98.10;;;;;;5034863;28;20397;-80
2023/08/08 04:10:14;;;;;;;6.30;1.90;;;14.20;98.20;;;;;;5052956;28;20462;-81
2023/08/08 04:12:39;;;;;;;8.95;2.00;;;14.20;98.20;;;;;;5045102;28;20049;-81
2023/08/08 04:15:05;;;;;;;4.53;1.73;;;14.20;98.50;;;;;;5032675;28;20045;-80
2023/08/08 04:17:31;;;;;;;4.78;1.80;;;14.20;98.40;;;;;;5017413;28;20051;-81
2023/08/08 04:19:56;;;;;;;6.95;1.83;;;14.10;98.30;;;;;;5033010;28;20067;-81
2023/08/08 04:22:22;;;;;;;5.68;1.90;;;14.20;98.50;;;;;;5031252;28;20046;-81
2023/08/08 04:24:48;;;;;;;4.88;1.80;;;14.20;98.60;;;;;;5032679;28;20042;-81
2023/08/08 04:27:13;;;;;;;7.28;1.92;;;14.20;98.50;;;;;;5032432;28;20037;-80
2023/08/08 04:29:39;;;;;;;4.40;1.60;;;14.20;98.60;;;;;;5031544;28;20455;-80
2023/08/08 04:32:05;;;;;;;6.55;1.50;;;14.10;98.70;;;;;;5031420;28;20040;-80
2023/08/08 04:34:30;;;;;;;5.85;1.80;;;14.10;98.90;;;;;;5031491;28;20088;-81
2023/08/08 04:36:56;;;;;;;6.93;1.75;;;14.10;99.10;;;;;;5032641;28;20076;-81
2023/08/08 04:39:22;;;;;;;9.45;2.00;;;14.20;99.20;;;;;;5032542;28;20407;-81
2023/08/08 04:41:47;;;;;;;8.82;1.90;;;14.10;99.30;;;;;;5049022;28;20040;-81
2023/08/08 04:44:13;;;;;;;4.43;1.35;;;14.20;99.30;;;;;;5030766;28;20518;-80
2023/08/08 04:46:38;;;;;;;5.90;1.80;;;14.10;99.10;;;;;;5031801;28;20045;-80
2023/08/08 04:49:04;;;;;;;5.03;1.75;;;14.10;98.90;;;;;;5032663;28;20465;-80
2023/08/08 04:51:30;;;;;;;4.30;1.73;;;14.10;98.80;;;;;;5032530;28;20535;-81
2023/08/08 04:53:55;;;;;;;6.00;1.48;;;14.10;98.80;;;;;;5032551;28;20041;-80
2023/08/08 04:56:21;;;;;;;4.25;1.40;;;14.10;98.80;;;;;;5032540;28;20535;-81
2023/08/08 04:58:46;;;;;;;8.05;1.58;;;14.10;98.80;;;;;;5032338;28;20088;-81
2023/08/08 05:01:14;;;;;;;7.43;1.50;;;14.10;99.00;;;;;;5032531;28;20048;-80
2023/08/08 05:03:40;;;;;;;6.28;1.67;;;14.10;99.10;;;;;;5031930;28;20050;-80
2023/08/08 05:06:06;;;;;;;5.05;1.38;;;14.10;99.10;;;;;;5035358;28;20043;-80
2023/08/08 05:08:31;;;;;;;7.75;1.60;;;14.10;98.90;;;;;;5034237;28;20487;-81
2023/08/08 05:10:57;;;;;;;5.30;1.38;;;14.10;99.00;;;;;;5035824;28;20051;-81
2023/08/08 05:13:23;;;;;;;7.28;1.70;;;14.10;99.20;;;;;;5035404;28;20081;-80
2023/08/08 05:15:48;;;;;;;6.93;1.70;;;14.10;99.00;;;;;;5035886;28;20038;-81
2023/08/08 05:18:14;;;;;;;7.20;1.40;;;14.10;99.20;;;;;;5043481;28;20036;-79
2023/08/08 05:20:40;;;;;;;5.22;1.67;;;14.10;99.70;;;;;;5036055;28;20038;-81
2023/08/08 05:23:05;;;;;;;8.48;1.60;;;14.20;99.90;;;;;;5035304;28;20071;-81
2023/08/08 05:25:31;;;;;;;9.57;1.90;;;14.20;99.90;;;;;;5035458;28;20399;-81
2023/08/08 05:27:57;;;;;;;7.45;1.48;;;14.20;99.90;;;;;;5034087;28;20127;-81
2023/08/08 05:30:22;;;;;;;7.30;1.88;;;14.30;99.90;;;;;;5035632;28;20041;-80
2023/08/08 05:32:48;;;;;;;7.57;1.67;;;14.30;99.90;;;;;;5041398;28;20037;-81
2023/08/08 05:35:14;;;;;;;6.60;1.48;;;14.40;99.90;;;;;;5040904;28;20563;-80
2023/08/08 05:37:39;;;;;;;8.45;1.50;;;14.40;99.90;;;;;;5034115;28;20442;-80
2023/08/08 05:40:06;;;;;;;5.32;1.42;;;14.40;99.90;;;;;;5038116;28;20072;-81
2023/08/08 05:42:32;;;;;;;5.05;1.30;;;14.40;99.90;;;;;;5055114;28;20405;-80
2023/08/08 05:44:58;;;;;;;7.70;1.50;;;14.40;99.90;;;;;;5043411;28;20112;-80
2023/08/08 05:47:23;;;;;;;4.93;1.40;;;14.50;99.90;;;;;;5034971;28;20100;-80
2023/08/08 05:49:49;;;;;;;5.97;1.48;;;14.50;99.90;;;;;;5050051;28;20045;-80
2023/08/08 05:52:15;;;;;;;10.40;1.45;;;14.50;99.90;;;;;;5035015;28;20053;-81
2023/08/08 05:54:40;;;;;;;7.05;1.45;;;14.50;99.90;;;;;;5034921;28;20045;-80
2023/08/08 05:57:06;;;;;;;7.25;1.50;;;14.50;99.90;;;;;;5034439;28;20053;-80
2023/08/08 05:59:32;;;;;;;5.72;1.35;;;14.60;99.90;;;;;;5050782;28;20356;-80
2023/08/08 06:01:58;;;;;;;7.47;1.40;;;14.60;99.90;;;;;;5036291;28;20049;-81
2023/08/08 06:04:25;;;;;;;5.25;1.33;;;14.60;99.90;;;;;;5035013;28;20056;-81
2023/08/08 06:06:51;;;;;;;9.00;1.40;;;14.60;99.90;;;;;;5034435;28;20176;-80
2023/08/08 06:09:17;;;;;;;6.80;1.60;;;14.60;99.90;;;;;;5042225;28;20037;-81
2023/08/08 06:11:43;;;;;;;7.93;1.52;;;14.70;99.90;;;;;;5034942;28;20041;-80
2023/08/08 06:14:08;;;;;;;4.85;1.17;;;14.70;99.90;;;;;;5033721;28;20069;-81
2023/08/08 06:16:34;;;;;;;6.97;1.45;;;14.70;99.90;;;;;;5034186;28;20561;-81
2023/08/08 06:19:00;;;;;;;6.50;1.40;;;14.70;99.90;;;;;;5034554;28;20480;-81
2023/08/08 06:21:26;;;;;;;9.30;1.67;;;14.70;99.90;;;;;;5034439;28;20116;-80
2023/08/08 06:23:54;;;;;;;7.75;1.40;;;14.70;99.90;;;;;;5042892;28;20495;-80
2023/08/08 06:26:21;;;;;;;6.22;1.40;;;14.80;99.90;;;;;;5038137;28;20057;-80
2023/08/08 06:28:47;;;;;;;10.45;1.92;;;14.80;99.90;;;;;;5034672;28;20401;-81
2023/08/08 06:31:13;;;;;;;7.20;1.40;;;14.90;99.90;;;;;;5036523;28;20050;-81
2023/08/08 06:33:39;;;;;;;7.97;1.40;;;14.90;99.90;;;;;;5034753;28;20380;-81
2023/08/08 06:36:05;;;;;;;8.23;1.50;;;14.90;99.90;;;;;;5016392;28;20060;-81
2023/08/08 06:38:33;;;;;;;8.77;1.63;;;15.00;99.90;;;;;;5032559;28;20065;-81
2023/08/08 06:41:02;;;;;;;4.97;1.20;;;15.10;99.90;;;;;;5034333;28;20056;-81
2023/08/08 06:43:28;;;;;;;8.52;1.60;;;15.10;99.90;;;;;;5034441;28;20410;-81
2023/08/08 06:45:54;;;;;;;6.05;1.10;;;15.20;99.90;;;;;;5037087;28;20117;-81
2023/08/08 06:48:19;;;;;;;9.27;1.30;;;15.20;99.90;;;;;;5034097;28;20071;-81
2023/08/08 06:50:45;;;;;;;7.40;1.27;;;15.30;99.90;;;;;;5033290;28;20033;-81
2023/08/08 06:53:10;;;;;;;10.25;1.50;;;15.30;99.90;;;;;;5033050;28;20038;-81
2023/08/08 06:55:36;;;;;;;8.10;1.45;;;15.40;99.90;;;;;;5032636;28;20052;-80
2023/08/08 06:58:02;;;;;;;9.13;1.50;;;15.50;99.90;;;;;;5024916;28;20103;-80
2023/08/08 07:00:28;;;;;;;12.27;1.50;;;15.50;99.90;;;;;;5039398;28;20423;-81
2023/08/08 07:02:53;;;;;;;7.50;1.40;;;15.60;99.90;;;;;;5033937;28;20061;-81
2023/08/08 07:05:19;;;;;;;12.63;1.60;;;15.70;99.90;;;;;;5033914;28;20106;-81
2023/08/08 07:07:46;;;;;;;6.03;1.42;;;15.70;99.90;;;;;;5031709;28;20476;-81
2023/08/08 07:10:12;;;;;;;8.10;1.27;;;15.80;99.90;;;;;;5033643;28;20053;-81
2023/08/08 07:12:38;;;;;;;10.18;1.60;;;15.90;99.70;;;;;;5033727;28;20099;-81
2023/08/08 07:15:07;;;;;;;6.60;1.23;;;16.00;99.30;;;;;;5033415;28;20041;-81
2023/08/08 07:17:32;;;;;;;9.57;1.55;;;16.00;99.10;;;;;;5034472;28;20419;-80
2023/08/08 07:19:58;;;;;;;5.55;1.00;;;16.10;98.70;;;;;;5049278;28;20045;-81
2023/08/08 07:22:24;;;;;;;9.80;1.27;;;16.20;98.30;;;;;;5035370;28;20037;-81
2023/08/08 07:24:50;;;;;;;4.63;1.00;;;16.30;97.80;;;;;;5033285;28;20045;-81
2023/08/08 07:27:15;;;;;;;6.25;1.38;;;16.30;97.60;;;;;;5032848;28;20124;-81
2023/08/08 07:29:41;;;;;;;5.35;1.10;;;16.40;97.80;;;;;;5032274;28;20107;-81
2023/08/08 07:32:07;;;;;;;6.78;1.20;;;16.50;97.80;;;;;;5036273;28;20041;-81
2023/08/08 07:34:32;;;;;;;5.25;1.10;;;16.50;97.40;;;;;;5053403;28;20621;-81
2023/08/08 07:36:59;;;;;;;6.68;1.33;;;16.60;97.30;;;;;;5032481;28;20372;-81
2023/08/08 07:39:25;;;;;;;8.50;1.27;;;16.60;97.10;;;;;;5048907;28;20045;-81
2023/08/08 07:41:51;;;;;;;6.18;1.15;;;16.60;97.00;;;;;;5033354;28;20053;-81
2023/08/08 07:44:16;;;;;;;10.75;1.20;;;16.70;97.00;;;;;;5033350;28;20049;-81
2023/08/08 07:46:42;;;;;;;13.77;1.55;;;16.70;96.90;;;;;;5032855;28;20175;-81
2023/08/08 07:49:09;;;;;;;6.38;1.30;;;16.80;96.60;;;;;;5051900;28;20087;-81
2023/08/08 07:51:35;;;;;;;13.02;1.40;;;16.80;96.40;;;;;;5032710;28;20057;-81
2023/08/08 07:54:01;;;;;;;7.57;1.30;;;16.80;96.20;;;;;;5034099;28;20069;-82
2023/08/08 07:56:27;;;;;;;6.82;1.10;;;16.80;96.10;;;;;;5033168;28;20084;-82
2023/08/08 07:58:53;;;;;;;9.90;1.42;;;16.90;96.20;;;;;;5032752;28;20081;-82
2023/08/08 08:01:19;;;;;;;9.60;1.20;;;16.90;96.10;;;;;;5032624;28;20073;-82
2023/08/08 08:03:45;;;;;;;7.20;1.55;;;16.90;96.00;;;;;;5033318;28;20530;-82
2023/08/08 08:06:11;;;;;;;8.07;1.40;;;17.00;96.00;;;;;;5032936;28;20037;-82
2023/08/08 08:08:37;;;;;;;8.52;1.55;;;17.00;96.10;;;;;;5033116;28;20038;-81
2023/08/08 08:11:04;;;;;;;7.97;1.20;;;17.00;96.30;;;;;;5032838;28;20041;-81
2023/08/08 08:13:29;;;;;;;14.93;1.20;;;17.00;96.30;;;;;;5037973;28;20071;-82
2023/08/08 08:15:55;;;;;;;5.80;1.02;;;17.10;96.10;;;;;;5052938;28;20045;-82
2023/08/08 08:18:21;;;;;;;8.65;1.27;;;17.10;96.00;;;;;;5034420;28;20084;-82
2023/08/08 08:20:47;;;;;;;6.68;0.88;;;17.10;96.00;;;;;;5031527;28;20506;-81
2023/08/08 08:23:13;;;;;;;6.38;1.10;;;17.20;96.10;;;;;;5032733;28;20045;-81
2023/08/08 08:25:38;;;;;;;7.70;1.30;;;17.20;96.40;;;;;;5032798;28;20045;-81
2023/08/08 08:28:04;;;;;;;5.15;1.00;;;17.20;96.50;;;;;;5033660;28;20132;-81
2023/08/08 08:30:30;;;;;;;11.02;1.25;;;17.30;96.50;;;;;;5030911;28;20041;-81
2023/08/08 08:32:59;;;;;;;10.55;1.40;;;17.30;96.50;;;;;;5031685;28;20049;-81
2023/08/08 08:35:25;;;;;;;7.63;1.20;;;17.40;96.40;;;;;;5035279;28;20087;-81
2023/08/08 08:37:51;;;;;;;6.85;1.20;;;17.50;96.10;;;;;;5031820;28;20054;-81
2023/08/08 08:40:17;;;;;;;9.65;1.35;;;17.50;95.60;;;;;;5054884;28;20044;-81
2023/08/08 08:42:44;;;;;;;7.65;1.63;;;17.50;95.60;;;;;;5056542;28;20064;-81
2023/08/08 08:45:11;;;;;;;10.50;1.40;;;17.60;95.90;;;;;;5047814;28;20439;-81
2023/08/08 08:47:39;;;;;;;6.78;1.52;;;17.60;96.30;;;;;;5036660;28;20060;-83
2023/08/08 08:50:05;;;;;;;6.90;1.25;;;17.60;96.40;;;;;;5032224;28;20124;-82
2023/08/08 08:52:30;;;;;;;5.82;1.27;;;17.60;96.70;;;;;;5017699;28;20431;-83
2023/08/08 08:54:57;;;;;;;5.53;1.30;;;17.50;96.90;;;;;;5016594;28;20050;-83
2023/08/08 08:57:25;;;;;;;7.05;1.30;;;17.40;97.10;;;;;;5035994;28;20068;-83
2023/08/08 08:59:52;;;;;;;8.63;1.55;;;17.40;97.20;;;;;;5018738;28;20041;-83
2023/08/08 09:02:21;;;;;;;7.22;1.50;;;17.30;97.50;;;;;;5026076;28;20037;-83
2023/08/08 09:04:47;;;;;;;7.15;1.30;;;17.30;97.80;;;;;;5044151;28;20045;-83
2023/08/08 09:07:14;;;;;;;7.68;1.13;;;17.20;98.00;;;;;;5016697;28;20403;-83
2023/08/08 09:09:43;;;;;;;9.30;1.55;;;17.20;98.10;;;;;;5020585;28;20037;-83
2023/08/08 09:12:08;;;;;;;7.53;1.23;;;17.20;98.40;;;;;;5043570;28;20061;-83
2023/08/08 09:14:39;;;;;;;5.03;1.20;;;17.20;98.60;;;;;;5025919;28;20492;-82
2023/08/08 09:17:15;;;;;;;8.13;1.50;;;17.10;98.70;;;;;;5022433;28;20054;-83
2023/08/08 09:19:45;;;;;;;5.13;1.20;;;17.10;98.50;;;;;;5038403;28;20076;-83
2023/08/08 09:22:15;;;;;;;5.70;1.27;;;17.10;98.80;;;;;;5021559;28;20049;-83
2023/08/08 09:24:42;;;;;;;6.43;1.23;;;17.00;99.20;;;;;;5040878;28;20076;-83
2023/08/08 09:27:09;;;;;;;8.88;1.40;;;17.00;99.40;;;;;;5055262;28;20044;-83
2023/08/08 09:29:35;;;;;;;6.32;1.48;;;17.10;99.50;;;;;;5041482;28;20112;-83
2023/08/08 09:32:06;;;;;;;5.13;1.00;;;17.00;99.60;;;;;;5037559;28;20141;-83
2023/08/08 09:34:32;;;;;;;7.43;1.20;;;17.10;99.90;;;;;;5032505;28;20054;-83
2023/08/08 09:36:58;;;;;;;5.97;1.35;;;17.10;99.90;;;;;;5035017;28;20519;-83
2023/08/08 09:39:24;;;;;;;9.18;1.50;;;17.20;99.90;;;;;;5052464;28;20045;-83
2023/08/08 09:41:50;;;;;;;9.10;1.13;;;17.20;99.90;;;;;;5055394;28;20049;-83
2023/08/08 09:44:16;;;;;;;5.72;1.15;;;17.30;99.90;;;;;;5055524;28;20055;-83
2023/08/08 09:46:42;;;;;;;7.93;1.23;;;17.30;99.90;;;;;;5055476;28;20057;-83
2023/08/08 09:49:10;;;;;;;6.65;1.40;;;17.40;99.90;;;;;;5055490;28;20186;-83
2023/08/08 09:51:36;;;;;;;7.45;1.25;;;17.40;99.60;;;;;;5054920;28;20411;-83
2023/08/08 09:54:03;;;;;;;7.57;1.33;;;17.50;99.40;;;;;;5026284;28;20046;-82
2023/08/08 09:56:30;;;;;;;4.40;1.02;;;17.60;99.60;;;;;;5020369;28;20060;-83
2023/08/08 09:58:57;;;;;;;8.27;1.20;;;17.60;99.30;;;;;;5017338;28;20053;-81
2023/08/08 10:01:24;;;;;;;6.25;1.30;;;17.70;98.80;;;;;;5022473;28;20053;-81
2023/08/08 10:03:52;;;;;;;6.43;1.30;;;17.80;98.70;;;;;;5015268;28;20121;-81
2023/08/08 10:06:18;;;;;;;6.22;1.60;;;17.90;98.30;;;;;;5036391;28;20059;-81
2023/08/08 10:08:45;;;;;;;7.03;1.33;;;17.90;97.80;;;;;;5027315;28;20046;-82
2023/08/08 10:11:12;;;;;;;8.25;1.60;;;18.00;97.90;;;;;;5015325;28;20038;-82
2023/08/08 10:13:46;;;;;;;8.07;1.38;;;18.00;97.30;;;;;;5021358;28;20038;-81
2023/08/08 10:16:12;;;;;;;6.68;1.30;;;18.00;96.80;;;;;;5039625;28;20057;-81
2023/08/08 10:18:38;;;;;;;7.25;1.15;;;18.00;96.80;;;;;;5041537;28;20045;-82
2023/08/08 10:21:09;;;;;;;6.25;1.27;;;18.00;96.80;;;;;;5033632;28;20049;-83
2023/08/08 10:23:39;;;;;;;8.85;1.40;;;18.10;96.50;;;;;;5029041;28;20041;-81
2023/08/08 10:26:16;;;;;;;7.05;1.23;;;18.20;96.50;;;;;;5035034;28;20065;-82
2023/08/08 10:28:56;;;;;;;8.68;1.10;;;18.20;96.10;;;;;;5020519;28;20040;-81
2023/08/08 10:31:22;;;;;;;6.72;1.20;;;18.30;95.80;;;;;;5031274;28;20053;-82
2023/08/08 10:33:48;;;;;;;7.38;1.48;;;18.40;95.60;;;;;;5031549;28;20045;-83
2023/08/08 10:36:13;;;;;;;9.43;1.10;;;18.50;95.50;;;;;;5021847;28;20046;-82
2023/08/08 10:38:44;;;;;;;4.60;1.20;;;18.50;94.30;;;;;;5028434;28;20042;-82
2023/08/08 10:41:18;;;;;;;6.07;1.40;;;18.60;94.30;;;;;;5026313;28;20411;-81
2023/08/08 10:43:51;;;;;;;;;;;18.60;94.10;;;;;;5028277;28;20109;-81
2023/08/08 10:46:26;;;;;;;7.82;1.50;;;18.50;93.60;;;;;;5032681;28;19921;-83
2023/08/08 10:48:53;;;;;;;6.53;1.23;;;18.60;94.00;;;;;;5034852;28;20581;-83
2023/08/08 10:51:19;;;;;;;5.95;1.13;;;18.60;93.20;;;;;;5034156;28;20088;-83
2023/08/08 10:53:45;;;;;;;6.80;1.15;;;18.70;92.80;;;;;;5027365;28;20167;-82
2023/08/08 10:56:14;;;;;;;5.82;1.15;;;18.70;92.90;;;;;;5014896;28;20129;-81
2023/08/08 10:58:41;;;;;;;8.32;1.20;;;18.70;92.10;;;;;;5031601;28;20107;-81
2023/08/08 11:01:09;;;;;;;7.75;1.30;;;18.80;91.70;;;;;;5026660;28;20048;-82
2023/08/08 11:03:41;;;;;;;7.32;1.30;;;18.70;92.40;;;;;;5033958;28;20041;-81
2023/08/08 11:06:08;;;;;;;6.25;1.20;;;18.70;92.90;;;;;;5032845;28;20140;-81
2023/08/08 11:08:36;;;;;;;7.70;1.42;;;18.70;93.30;;;;;;5043948;28;20044;-81
2023/08/08 11:11:02;;;;;;;8.05;1.65;;;18.70;93.60;;;;;;5048584;28;20403;-82
2023/08/08 11:13:28;;;;;;;5.28;1.38;;;18.70;93.50;;;;;;5033528;28;20037;-81
2023/08/08 11:15:54;;;;;;;6.38;1.40;;;18.60;93.90;;;;;;5033326;28;20056;-82
2023/08/08 11:18:19;;;;;;;7.63;1.65;;;18.60;93.80;;;;;;5033305;28;20049;-82
2023/08/08 11:20:45;;;;;;;6.80;1.30;;;18.60;94.10;;;;;;5035297;28;20041;-82
2023/08/08 11:23:13;;;;;;;6.72;1.20;;;18.60;94.10;;;;;;5033183;28;20121;-81
2023/08/08 11:25:45;;;;;;;8.35;1.42;;;18.60;94.00;;;;;;5033370;28;20083;-82
2023/08/08 11:28:12;;;;;;;5.95;1.60;;;18.70;93.10;;;;;;5033950;28;20656;-83
2023/08/08 11:30:43;;;;;;;6.13;1.20;;;18.70;92.70;;;;;;5035182;28;20045;-82
2023/08/08 11:33:09;;;;;;;7.63;1.55;;;18.70;92.60;;;;;;5033804;28;20052;-82
2023/08/08 11:35:35;;;;;;;7.50;1.50;;;18.80;92.50;;;;;;5033804;28;20116;-82
2023/08/08 11:38:07;;;;;;;9.50;1.70;;;18.80;91.60;;;;;;5032310;28;20041;-82
2023/08/08 11:40:36;;;;;;;5.43;1.08;;;18.70;91.30;;;;;;5032627;28;20484;-82
2023/08/08 11:43:02;;;;;;;6.05;1.40;;;18.70;91.80;;;;;;5033919;28;20124;-82
2023/08/08 11:45:28;;;;;;;8.25;1.23;;;18.70;91.50;;;;;;5033437;28;20511;-82
2023/08/08 11:47:57;;;;;;;8.20;1.50;;;18.70;91.60;;;;;;5033657;28;20129;-82
2023/08/08 11:50:25;;;;;;;8.60;1.25;;;18.70;91.20;;;;;;5033423;28;20107;-82
2023/08/08 11:52:55;;;;;;;9.63;1.42;;;18.80;91.30;;;;;;5033341;28;20042;-81
2023/08/08 11:55:27;;;;;;;9.38;1.55;;;18.80;91.00;;;;;;5033135;28;20045;-82
2023/08/08 11:57:56;;;;;;;5.60;1.33;;;18.90;90.40;;;;;;5033257;28;20073;-82
2023/08/08 12:00:27;;;;;;;9.45;1.50;;;18.90;90.40;;;;;;5032470;28;20055;-82
2023/08/08 12:02:53;;;;;;;8.50;1.42;;;18.80;90.40;;;;;;5033397;28;20041;-81
2023/08/08 12:05:22;;;;;;;10.57;1.50;;;18.80;90.60;;;;;;5033245;28;20053;-81
2023/08/08 12:07:48;;;;;;;10.25;1.50;;;18.80;90.80;;;;;;5033148;28;20045;-82
2023/08/08 12:10:17;;;;;;;6.20;1.45;;;18.80;91.20;;;;;;5032387;28;20051;-82
2023/08/08 12:12:44;;;;;;;6.82;1.40;;;18.90;91.60;;;;;;5033323;28;20049;-81
2023/08/08 12:15:10;;;;;;;11.77;1.50;;;19.00;91.70;;;;;;5036938;28;20045;-82
2023/08/08 12:17:36;;;;;;;5.28;1.17;;;19.00;91.40;;;;;;5037048;28;20042;-82
2023/08/08 12:20:07;;;;;;;6.90;1.40;;;19.10;91.10;;;;;;5035995;28;20053;-82
2023/08/08 12:22:33;;;;;;;8.20;1.52;;;19.10;90.70;;;;;;5037011;28;20128;-82
2023/08/08 12:24:59;;;;;;;8.18;1.15;;;19.20;90.50;;;;;;5037181;28;20048;-82
2023/08/08 12:27:25;;;;;;;5.30;1.33;;;19.10;90.50;;;;;;5037131;28;20037;-82
2023/08/08 12:29:51;;;;;;;7.50;1.20;;;19.10;90.00;;;;;;5036948;28;20078;-82
2023/08/08 12:32:23;;;;;;;7.05;1.30;;;19.10;89.00;;;;;;5036872;28;20061;-82
2023/08/08 12:34:49;;;;;;;7.38;1.15;;;19.10;88.70;;;;;;5036792;28;20064;-82
2023/08/08 12:37:15;;;;;;;7.15;1.08;;;19.10;89.20;;;;;;5036913;28;20134;-81
2023/08/08 12:39:40;;;;;;;7.28;1.23;;;19.10;89.20;;;;;;5035961;28;20460;-81
2023/08/08 12:42:06;;;;;;;6.60;1.20;;;19.10;88.20;;;;;;5036722;28;20041;-81